METAR
LICR 042150Z 32002KT CAVOK 26/24 Q1014
TAF